BGSFCYFB

Guest
Details From BGSF - Kangerlussuaq
To CYFB - Iqaluit
Flight Number -
Tags Generated
Created
Modified
Stats Distance 486 nm / 900 km
Max Altitude 0 ft / 0 m
Waypoints 3
Social Downloads 4
Likes 0
Share VATSIM

Download

Looking for another format? Having issues loading an existing format? Contact us
Advertisement - Login to hide

Notes

Generated

Route

BGSF YFB CYFB

ID Type Via Altitude Latitude Longitude Leg Dist Tot Dist Heading (true) Name
O BGSF APT - 0 ft / 0 m 67.00561˚ -50.74307˚ - 0 nm - -
YFB VOR - 0 ft / 0 m 63.74167˚ -68.47333˚ 482 nm 482 nm 254° / 238° FROBAY VOR
O CYFB APT - 0 ft / 0 m 63.76497˚ -68.57398˚ 3 nm 485 nm 298° / 298° -

Altitude Profile

Advertisement - Login to hide

Weather


0- 5 10 15 20 25 30 35+ Temperature / ° C

Clouds and Precipitation
Forecast for 2018-05-26 06:00 UTC. Updated an hour ago

Ground ~20,000 ft ~40,000 ft Winds

BGSF

Details ICAO BGSF (SFJ)
Name Kangerlussuaq
Region Greenland
Timezone America/Godthab (UTC-2.0)
Stats Elevation 165 ft / 50 m (AMSL)
Location 67.011605° -50.714721°
Runways 2
Magnetic Variation 28.855° W

METAR

BGSF 260550Z AUTO 06005KT 040V110 9999NDV BKN100/// 04/M07 Q0993

Decode

TAF

Not found

Departure Runways

ID Width Length Bearing (true) Bearing (mag) Surface Threshold Offset Overrun Length
09 197 ft / 60 m 9,169 ft / 2,795 m 61.57° 90.42° Asphalt 0 ft / 0 m 509 ft / 155 m
10 197 ft / 60 m 9,187 ft / 2,800 m 61.55° 90.40° Asphalt 0 ft / 0 m 0 ft / 0 m
27 197 ft / 60 m 9,169 ft / 2,795 m 241.63° 270.48° Asphalt 0 ft / 0 m 171 ft / 52 m
28 197 ft / 60 m 9,187 ft / 2,800 m 241.60° 270.45° Asphalt 0 ft / 0 m 0 ft / 0 m

CYFB

Details ICAO CYFB (YFB)
Name Iqaluit
Region Canada
Timezone America/Iqaluit (UTC-4.0)
Stats Elevation 110 ft / 34 m (AMSL)
Location 63.756565° -68.556058°
Runways 1
Magnetic Variation 27.370° W

METAR

CYFB 260600Z 31011KT 6SM -SN OVC029 M06/M09 A2983 RMK SN6SC2 SLP105

Decode

TAF

TAF TAF CYFB 260548Z 2606/2706 33015KT P6SM OVC030 TEMPO 2606/2624 5SM -SN BKN020 OVC030 BECMG 2613/2615 33022KT FM270000 33010KT P6SM OVC030 RMK NXT FCST BY 261200Z

Decode

Destination Runways

ID Width Length Bearing (true) Bearing (mag) Surface Threshold Offset Overrun Length
17 200 ft / 61 m 8,605 ft / 2,623 m 135.58° 162.95° Asphalt 0 ft / 0 m 210 ft / 64 m
35 200 ft / 61 m 8,605 ft / 2,623 m 315.62° 342.99° Asphalt 0 ft / 0 m 243 ft / 74 m

Popular Alternatives